S73 Hermelin — DRCG — position and weather

sailwx.info

Track history (hours):
 
Tides and Currents Weather Stations Pressure Air Temp Water Temp Dewpoint Dewpoint Depression Visibility Wind Speed Wind Dir Waves Ship Positions

S73 Hermelin

Last reported at 2015-Mar-13 09:08 UTC. Time now 2015-Mar-27 13:15 UTC.
Position N 54°10' E 012°07'.
Warning: this ship's position is 14 days out of date.

Length 58 m.

Type: Military. MMSI: 211210610.

Date/timePositionNaut miles runAvg speedWind from/ knotsBaromVisibWave heightAir tempDewpointWater temp
2015-Mar-13 09:08N 54°10' E 012°07'2 2.7
2015-Mar-13 08:33N 54°12' E 012°05'1010.3
2015-Mar-13 07:34N 54°15' E 011°49'2319.3
2015-Mar-13 06:22N 54°06' E 011°12'6 0.4
2015-Mar-12 13:33N 54°09' E 011°22'5 2.4
2015-Mar-12 11:31N 54°14' E 011°21'1010.2
2015-Mar-12 10:33N 54°19' E 011°35'1111.2
2015-Mar-12 09:33N 54°13' E 011°19'2 1.9
2015-Mar-12 08:28N 54°14' E 011°22'5 6.0
2015-Mar-12 07:33N 54°15' E 011°13'9 0.8
2015-Mar-11 21:21N 54°23' E 011°16'0 0.5
2015-Mar-11 20:33N 54°23' E 011°15'5 4.5
2015-Mar-11 19:29N 54°20' E 011°22'1616.6
2015-Mar-11 18:30N 54°34' E 011°08'5 4.2
2015-Mar-11 17:14N 54°38' E 011°02'2917.4
2015-Mar-11 15:33N 54°44' E 010°12'2318.0
2015-Mar-11 14:14N 55°05' E 009°58'116 2.4
2015-Mar-09 14:34N 56°44' E 011°49'1514.9
2015-Mar-09 13:34N 56°58' E 011°43'1615.7
2015-Mar-09 12:34N 57°13' E 011°32'1413.7
2015-Mar-09 11:33N 57°24' E 011°17'7 7.4
2015-Mar-09 10:34N 57°30' E 011°26'9 8.6
2015-Mar-09 09:34N 57°35' E 011°38'8 8.4
2015-Mar-09 08:34N 57°41' E 011°50'  
2015-Mar-06 09:07N 57°43' E 011°58'0 0.5
2015-Mar-06 08:33N 57°43' E 011°57'3 3.2
2015-Mar-06 07:33N 57°41' E 011°52'1010.2
2015-Mar-06 06:33N 57°34' E 011°38'9 8.6
2015-Mar-06 05:34N 57°28' E 011°28'1411.7
2015-Mar-06 04:24N 57°20' E 011°07'0 0.0
2015-Mar-06 03:33N 57°20' E 011°07'0 0.0
2015-Mar-06 02:30N 57°20' E 011°07'0 0.0
2015-Mar-06 01:24N 57°20' E 011°07'0 0.0
2015-Mar-06 00:15N 57°20' E 011°07'0 0.0
2015-Mar-05 23:18N 57°20' E 011°07'0 0.0
2015-Mar-05 22:30N 57°20' E 011°07'0 0.0
2015-Mar-05 21:30N 57°20' E 011°07'0 0.0
2015-Mar-05 20:30N 57°20' E 011°07'0 0.0
2015-Mar-05 19:33N 57°20' E 011°07'2 1.6
2015-Mar-05 18:33N 57°22' E 011°08'2120.3
2015-Mar-05 17:32N 57°10' E 011°40'9 9.3
2015-Mar-05 16:33N 57°02' E 011°47'1110.5
2015-Mar-05 15:33N 56°52' E 011°54'61 3.5
2015-Mar-04 22:04N 56°10' E 010°34'9811.5
2015-Mar-04 13:34N 54°33' E 010°27'1211.6
2015-Mar-04 12:34N 54°26' E 010°11'0 0.0
2015-Mar-04 11:34N 54°26' E 010°11'1 1.1
2015-Mar-04 10:34N 54°26' E 010°13'1515.4
2015-Mar-04 09:33N 54°41' E 010°08'7 7.0
2015-Mar-04 08:33N 54°34' E 010°09'1310.2
2015-Mar-04 07:17N 54°47' E 010°03'811.1
2015-Mar-04 06:33N 54°48' E 009°49'0 0.0
2015-Mar-03 23:34N 54°48' E 009°49'1 0.6
2015-Mar-03 22:34N 54°48' E 009°50'7 7.0
2015-Mar-03 21:30N 54°47' E 010°02'6 1.2
2015-Mar-03 16:23N 54°44' E 010°11'8 9.8
2015-Mar-03 15:33N 54°36' E 010°11'1 1.0
2015-Mar-03 14:33N 54°37' E 010°10'2 1.8
2015-Mar-03 13:33N 54°38' E 010°08'6 5.7
2015-Mar-03 12:32N 54°32' E 010°07'8 7.7
2015-Mar-03 11:28N 54°29' E 009°54'1314.1
2015-Mar-03 10:33N 54°33' E 010°15'4 3.4
2015-Mar-03 09:19N 54°37' E 010°19'  
Track history (hours):
 
Tides and Currents Weather Stations Pressure Air Temp Water Temp Dewpoint Dewpoint Depression Visibility Wind Speed Wind Dir Waves Ship Positions

S73 Hermelin

Last reported at 2015-Mar-13 09:08 UTC. Time now 2015-Mar-27 13:15 UTC.
Position N 54°10' E 012°07'.
Warning: this ship's position is 14 days out of date.

Length 58 m.

Type: Military. MMSI: 211210610.

Date/timePositionNaut miles runAvg speedWind from/ knotsBaromVisibWave heightAir tempDewpointWater temp
2015-Mar-13 09:08N 54°10' E 012°07'2 2.7
2015-Mar-13 08:33N 54°12' E 012°05'1010.3
2015-Mar-13 07:34N 54°15' E 011°49'2319.3
2015-Mar-13 06:22N 54°06' E 011°12'6 0.4
2015-Mar-12 13:33N 54°09' E 011°22'5 2.4
2015-Mar-12 11:31N 54°14' E 011°21'1010.2
2015-Mar-12 10:33N 54°19' E 011°35'1111.2
2015-Mar-12 09:33N 54°13' E 011°19'2 1.9
2015-Mar-12 08:28N 54°14' E 011°22'5 6.0
2015-Mar-12 07:33N 54°15' E 011°13'9 0.8
2015-Mar-11 21:21N 54°23' E 011°16'0 0.5
2015-Mar-11 20:33N 54°23' E 011°15'5 4.5
2015-Mar-11 19:29N 54°20' E 011°22'1616.6
2015-Mar-11 18:30N 54°34' E 011°08'5 4.2
2015-Mar-11 17:14N 54°38' E 011°02'2917.4
2015-Mar-11 15:33N 54°44' E 010°12'2318.0
2015-Mar-11 14:14N 55°05' E 009°58'116 2.4
2015-Mar-09 14:34N 56°44' E 011°49'1514.9
2015-Mar-09 13:34N 56°58' E 011°43'1615.7
2015-Mar-09 12:34N 57°13' E 011°32'1413.7
2015-Mar-09 11:33N 57°24' E 011°17'7 7.4
2015-Mar-09 10:34N 57°30' E 011°26'9 8.6
2015-Mar-09 09:34N 57°35' E 011°38'8 8.4
2015-Mar-09 08:34N 57°41' E 011°50'  
2015-Mar-06 09:07N 57°43' E 011°58'0 0.5
2015-Mar-06 08:33N 57°43' E 011°57'3 3.2
2015-Mar-06 07:33N 57°41' E 011°52'1010.2
2015-Mar-06 06:33N 57°34' E 011°38'9 8.6
2015-Mar-06 05:34N 57°28' E 011°28'1411.7
2015-Mar-06 04:24N 57°20' E 011°07'0 0.0
2015-Mar-06 03:33N 57°20' E 011°07'0 0.0
2015-Mar-06 02:30N 57°20' E 011°07'0 0.0
2015-Mar-06 01:24N 57°20' E 011°07'0 0.0
2015-Mar-06 00:15N 57°20' E 011°07'0 0.0
2015-Mar-05 23:18N 57°20' E 011°07'0 0.0
2015-Mar-05 22:30N 57°20' E 011°07'0 0.0
2015-Mar-05 21:30N 57°20' E 011°07'0 0.0
2015-Mar-05 20:30N 57°20' E 011°07'0 0.0
2015-Mar-05 19:33N 57°20' E 011°07'2 1.6
2015-Mar-05 18:33N 57°22' E 011°08'2120.3
2015-Mar-05 17:32N 57°10' E 011°40'9 9.3
2015-Mar-05 16:33N 57°02' E 011°47'1110.5
2015-Mar-05 15:33N 56°52' E 011°54'61 3.5
2015-Mar-04 22:04N 56°10' E 010°34'9811.5
2015-Mar-04 13:34N 54°33' E 010°27'1211.6
2015-Mar-04 12:34N 54°26' E 010°11'0 0.0
2015-Mar-04 11:34N 54°26' E 010°11'1 1.1
2015-Mar-04 10:34N 54°26' E 010°13'1515.4
2015-Mar-04 09:33N 54°41' E 010°08'7 7.0
2015-Mar-04 08:33N 54°34' E 010°09'1310.2
2015-Mar-04 07:17N 54°47' E 010°03'811.1
2015-Mar-04 06:33N 54°48' E 009°49'0 0.0
2015-Mar-03 23:34N 54°48' E 009°49'1 0.6
2015-Mar-03 22:34N 54°48' E 009°50'7 7.0
2015-Mar-03 21:30N 54°47' E 010°02'6 1.2
2015-Mar-03 16:23N 54°44' E 010°11'8 9.8
2015-Mar-03 15:33N 54°36' E 010°11'1 1.0
2015-Mar-03 14:33N 54°37' E 010°10'2 1.8
2015-Mar-03 13:33N 54°38' E 010°08'6 5.7
2015-Mar-03 12:32N 54°32' E 010°07'8 7.7
2015-Mar-03 11:28N 54°29' E 009°54'1314.1
2015-Mar-03 10:33N 54°33' E 010°15'4 3.4
2015-Mar-03 09:19N 54°37' E 010°19'  

Dump ship's entire track history